createdAt,value
2022-11-06T00:00:57.979Z,35.20
2022-11-06T00:03:24.788Z,32.95
2022-11-06T00:05:51.627Z,36.63
2022-11-06T00:08:27.886Z,36.28
2022-11-06T00:10:55.949Z,34.50
2022-11-06T00:13:22.570Z,35.47
2022-11-06T00:15:49.365Z,35.75
2022-11-06T00:18:16.147Z,37.13
2022-11-06T00:20:42.895Z,35.67
2022-11-06T00:23:09.813Z,37.70
2022-11-06T00:25:40.309Z,46.45
2022-11-06T00:28:08.940Z,40.80
2022-11-06T00:30:35.616Z,38.70
2022-11-06T00:33:02.382Z,39.65
2022-11-06T00:35:29.083Z,35.20
2022-11-06T00:37:55.810Z,37.45
2022-11-06T00:40:22.631Z,37.28
2022-11-06T00:42:53.886Z,41.55
2022-11-06T00:45:21.898Z,43.88
2022-11-06T00:47:48.714Z,40.23
2022-11-06T00:50:15.613Z,41.53
2022-11-06T00:52:42.292Z,37.88
2022-11-06T00:55:09.481Z,35.47
2022-11-06T00:57:36.178Z,28.92
2022-11-06T01:00:03.806Z,34.20
2022-11-06T01:02:32.016Z,34.55
2022-11-06T01:04:58.793Z,28.65
2022-11-06T01:07:25.596Z,29.75
2022-11-06T01:09:52.291Z,22.38
2022-11-06T01:12:19.140Z,25.17
2022-11-06T01:14:45.909Z,33.08
2022-11-06T01:17:13.427Z,32.03
2022-11-06T01:19:41.634Z,28.50
2022-11-06T01:22:08.300Z,31.90
2022-11-06T01:24:35.185Z,28.53
2022-11-06T01:29:48.727Z,26.27
2022-11-06T01:32:15.387Z,25.27
2022-11-06T01:34:43.370Z,24.95
2022-11-06T01:37:14.180Z,26.83
2022-11-06T01:39:41.694Z,26.08
2022-11-06T01:42:11.111Z,28.02
2022-11-06T01:45:31.235Z,23.92
2022-11-06T01:47:57.957Z,25.23
2022-11-06T01:50:26.774Z,24.83
2022-11-06T01:52:53.510Z,25.08
2022-11-06T01:55:24.953Z,20.33
2022-11-06T01:57:52.156Z,18.73
2022-11-06T02:00:18.926Z,30.63
2022-11-06T02:02:46.036Z,16.77
2022-11-06T02:05:12.823Z,19.00
2022-11-06T02:07:41.588Z,19.50
2022-11-06T02:10:09.191Z,17.10
2022-11-06T02:12:50.660Z,18.42
2022-11-06T02:15:23.147Z,19.17
2022-11-06T02:18:18.782Z,26.27
2022-11-06T02:20:57.186Z,27.55
2022-11-06T02:23:50.540Z,24.38
2022-11-06T02:26:37.376Z,22.10
2022-11-06T02:29:09.203Z,30.07
2022-11-06T02:31:41.377Z,31.70
2022-11-06T02:34:11.617Z,30.92
2022-11-06T02:36:57.424Z,38.92
2022-11-06T02:39:27.474Z,38.00
2022-11-06T02:41:57.400Z,44.40
2022-11-06T02:44:28.685Z,43.03
2022-11-06T02:46:58.337Z,41.80
2022-11-06T02:49:29.964Z,38.88
2022-11-06T02:51:59.925Z,47.75
2022-11-06T02:54:29.680Z,42.40
2022-11-06T02:57:00.178Z,50.03
2022-11-06T02:59:34.731Z,60.40
2022-11-06T03:02:05.449Z,53.05
2022-11-06T03:04:37.711Z,62.35
2022-11-06T03:07:09.712Z,63.80
2022-11-06T03:09:37.594Z,55.80
2022-11-06T03:12:12.178Z,66.20
2022-11-06T03:14:48.562Z,54.42
2022-11-06T03:17:20.381Z,62.03
2022-11-06T03:19:51.198Z,50.13
2022-11-06T03:22:25.852Z,56.45
2022-11-06T03:24:59.122Z,60.83
2022-11-06T03:27:33.495Z,56.55
2022-11-06T03:30:05.347Z,57.25
2022-11-06T03:32:36.468Z,52.97
2022-11-06T03:35:09.261Z,64.88
2022-11-06T03:37:47.425Z,52.95
2022-11-06T03:40:17.179Z,55.22
2022-11-06T03:42:45.528Z,53.03
2022-11-06T03:45:18.120Z,55.07
2022-11-06T03:47:48.175Z,60.15
2022-11-06T03:50:19.303Z,53.53
2022-11-06T03:52:53.306Z,66.13
2022-11-06T03:55:24.330Z,60.28
2022-11-06T03:57:54.259Z,61.53
2022-11-06T04:00:23.009Z,59.30
2022-11-06T04:02:53.369Z,56.28
2022-11-06T04:05:23.668Z,53.20
2022-11-06T04:07:53.979Z,53.53
2022-11-06T04:10:20.691Z,45.70
2022-11-06T04:12:49.299Z,46.17
2022-11-06T04:15:19.671Z,40.28
2022-11-06T04:17:47.837Z,46.47
2022-11-06T04:20:19.596Z,46.28
2022-11-06T04:22:55.638Z,46.40
2022-11-06T04:25:34.561Z,47.38
2022-11-06T04:28:13.653Z,56.60
2022-11-06T04:30:46.360Z,74.32
2022-11-06T04:33:25.356Z,61.45
2022-11-06T04:35:59.921Z,53.30
2022-11-06T04:38:41.969Z,48.08
2022-11-06T04:41:15.916Z,60.13
2022-11-06T04:43:47.220Z,73.95
2022-11-06T04:46:20.027Z,61.00
2022-11-06T04:48:49.356Z,48.83
2022-11-06T04:51:20.208Z,59.92
2022-11-06T04:53:49.157Z,51.08
2022-11-06T04:56:25.561Z,56.47
2022-11-06T04:58:52.462Z,58.42
2022-11-06T05:01:19.227Z,49.23
2022-11-06T05:03:46.000Z,42.13
2022-11-06T05:06:14.288Z,53.00
2022-11-06T05:08:40.943Z,56.65
2022-11-06T05:11:07.851Z,53.30
2022-11-06T05:13:34.527Z,54.20
2022-11-06T05:16:01.345Z,48.13
2022-11-06T05:18:28.077Z,61.28
2022-11-06T05:20:55.064Z,49.28
2022-11-06T05:23:23.110Z,64.82
2022-11-06T05:25:49.756Z,65.43
2022-11-06T05:28:16.499Z,50.92
2022-11-06T05:30:45.336Z,63.85
2022-11-06T05:33:12.013Z,71.78
2022-11-06T05:35:38.643Z,76.05
2022-11-06T05:38:05.315Z,73.60
2022-11-06T05:40:33.322Z,62.85
2022-11-06T05:43:00.081Z,65.72
2022-11-06T05:45:26.724Z,63.05
2022-11-06T05:47:53.590Z,74.10
2022-11-06T05:50:20.331Z,52.23
2022-11-06T05:52:47.026Z,56.83
2022-11-06T05:55:15.298Z,60.28
2022-11-06T05:57:43.828Z,55.75
2022-11-06T06:00:12.349Z,55.17
2022-11-06T06:02:39.681Z,48.90
2022-11-06T06:05:07.787Z,50.53
2022-11-06T06:07:34.604Z,49.40
2022-11-06T06:10:01.391Z,41.85
2022-11-06T06:12:28.066Z,36.05
2022-11-06T06:14:56.161Z,40.13
2022-11-06T06:17:22.906Z,43.53
2022-11-06T06:19:49.600Z,45.15
2022-11-06T06:22:16.355Z,42.28
2022-11-06T06:24:43.157Z,42.25
2022-11-06T06:27:10.086Z,41.70
2022-11-06T06:29:36.806Z,41.35
2022-11-06T06:32:05.809Z,39.90
2022-11-06T06:34:32.574Z,39.63
2022-11-06T06:36:59.260Z,39.40
2022-11-06T06:39:25.923Z,40.17
2022-11-06T06:41:52.582Z,32.50
2022-11-06T06:44:19.213Z,31.77
2022-11-06T06:46:45.914Z,29.98
2022-11-06T06:49:13.989Z,24.40
2022-11-06T06:51:40.639Z,29.03
2022-11-06T06:54:07.554Z,27.17
2022-11-06T06:56:34.176Z,25.60
2022-11-06T06:59:00.800Z,22.80
2022-11-06T07:01:34.156Z,28.15
2022-11-06T07:04:04.188Z,22.83
2022-11-06T07:06:32.699Z,25.45
2022-11-06T07:08:59.310Z,27.05
2022-11-06T07:11:26.021Z,27.25
2022-11-06T07:13:52.756Z,22.95
2022-11-06T07:16:20.916Z,27.33
2022-11-06T07:18:47.644Z,22.85
2022-11-06T07:21:14.418Z,25.20
2022-11-06T07:23:42.451Z,26.88
2022-11-06T07:26:09.157Z,28.83
2022-11-06T07:28:35.957Z,31.10
2022-11-06T07:31:05.163Z,29.65
2022-11-06T07:33:32.323Z,32.08
2022-11-06T07:36:03.237Z,33.65
2022-11-06T07:38:30.023Z,31.52
2022-11-06T07:41:01.623Z,30.30
2022-11-06T07:43:28.311Z,39.13
2022-11-06T07:45:59.208Z,35.50
2022-11-06T07:48:25.919Z,35.55
2022-11-06T07:50:52.618Z,36.40
2022-11-06T07:53:19.358Z,41.17
2022-11-06T07:55:48.693Z,37.97
2022-11-06T07:58:16.941Z,39.25
2022-11-06T08:00:46.745Z,36.97
2022-11-06T08:03:13.496Z,38.22
2022-11-06T08:05:40.208Z,38.13
2022-11-06T08:08:07.036Z,40.35
2022-11-06T08:10:33.843Z,35.83
2022-11-06T08:13:00.782Z,35.25
2022-11-06T08:15:28.837Z,42.65
2022-11-06T08:17:55.473Z,39.70
2022-11-06T08:20:22.182Z,62.33
2022-11-06T08:22:48.797Z,75.07
2022-11-06T08:25:15.829Z,46.58
2022-11-06T08:27:42.591Z,36.13
2022-11-06T08:30:10.696Z,58.47
2022-11-06T08:32:38.865Z,43.65
2022-11-06T08:35:06.813Z,63.63
2022-11-06T08:37:33.497Z,41.88
2022-11-06T08:40:00.190Z,37.30
2022-11-06T08:42:26.858Z,39.03
2022-11-06T08:44:53.505Z,31.05
2022-11-06T08:47:20.165Z,27.70
2022-11-06T08:49:48.226Z,29.42
2022-11-06T08:52:15.039Z,26.67
2022-11-06T08:54:41.705Z,27.23
2022-11-06T08:57:08.503Z,25.70
2022-11-06T08:59:35.143Z,24.58
2022-11-06T09:02:01.945Z,21.55
2022-11-06T09:04:28.814Z,22.23
2022-11-06T09:06:57.768Z,19.73
2022-11-06T09:09:24.496Z,19.75
2022-11-06T09:11:51.107Z,19.20
2022-11-06T09:14:17.745Z,19.27
2022-11-06T09:16:44.409Z,22.13
2022-11-06T09:19:11.072Z,22.00
2022-11-06T09:21:37.783Z,19.27
2022-11-06T09:24:12.879Z,20.77
2022-11-06T09:26:39.501Z,19.52
2022-11-06T09:29:06.231Z,22.33
2022-11-06T09:31:32.889Z,16.77
2022-11-06T09:33:59.532Z,16.92
2022-11-06T09:36:26.243Z,17.95
2022-11-06T09:38:52.919Z,18.02
2022-11-06T09:41:27.400Z,17.92
2022-11-06T09:44:12.083Z,18.40
2022-11-06T09:46:42.597Z,19.73
2022-11-06T09:49:20.230Z,17.48
2022-11-06T09:51:52.281Z,17.90
2022-11-06T09:54:22.765Z,17.67
2022-11-06T09:56:55.770Z,18.17
2022-11-06T09:59:22.600Z,18.60
2022-11-06T10:01:52.998Z,18.88
2022-11-06T10:04:36.115Z,16.50
2022-11-06T10:07:02.848Z,17.35
2022-11-06T10:09:29.909Z,18.10
2022-11-06T10:12:08.022Z,17.67
2022-11-06T10:14:50.074Z,20.33
2022-11-06T10:17:30.097Z,16.27
2022-11-06T10:20:04.457Z,17.60
2022-11-06T10:22:38.213Z,16.87
2022-11-06T10:25:17.375Z,14.50
2022-11-06T10:27:57.233Z,16.42
2022-11-06T10:30:23.886Z,16.23
2022-11-06T10:33:17.139Z,17.33
2022-11-06T10:35:48.581Z,16.87
2022-11-06T10:38:19.043Z,16.15
2022-11-06T10:40:49.115Z,17.63
2022-11-06T10:43:26.534Z,16.98
2022-11-06T10:45:58.943Z,15.85
2022-11-06T10:48:31.694Z,14.60
2022-11-06T10:51:14.200Z,16.73
2022-11-06T10:53:51.034Z,16.58
2022-11-06T10:56:41.030Z,17.92
2022-11-06T10:59:09.410Z,18.60
2022-11-06T11:01:37.640Z,17.07
2022-11-06T11:04:04.604Z,17.52
2022-11-06T11:06:31.471Z,16.90
2022-11-06T11:08:58.166Z,15.73
2022-11-06T11:11:26.582Z,15.18
2022-11-06T11:14:22.036Z,14.30
2022-11-06T11:16:48.998Z,14.90
2022-11-06T11:19:24.145Z,15.70
2022-11-06T11:21:56.314Z,15.32
2022-11-06T11:24:23.124Z,16.38
2022-11-06T11:26:52.094Z,16.20
2022-11-06T11:29:23.918Z,15.73
2022-11-06T11:31:52.934Z,18.67
2022-11-06T11:34:22.241Z,16.30
2022-11-06T11:36:56.046Z,19.02
2022-11-06T11:39:26.553Z,20.40
2022-11-06T11:41:53.222Z,16.13
2022-11-06T11:44:21.407Z,15.82
2022-11-06T11:46:50.157Z,17.27
2022-11-06T11:49:28.709Z,16.90
2022-11-06T11:51:57.445Z,15.73
2022-11-06T11:54:26.839Z,15.30
2022-11-06T11:57:04.766Z,16.58
2022-11-06T11:59:37.513Z,17.95
2022-11-06T12:02:14.500Z,17.08
2022-11-06T12:04:45.577Z,17.33
2022-11-06T12:07:22.290Z,18.67
2022-11-06T12:09:49.048Z,19.50
2022-11-06T12:12:22.055Z,17.77
2022-11-06T12:15:04.713Z,16.55
2022-11-06T12:17:33.423Z,17.53
2022-11-06T12:20:02.779Z,16.45
2022-11-06T12:22:35.050Z,16.80
2022-11-06T12:25:05.354Z,16.75
2022-11-06T12:27:35.139Z,19.10
2022-11-06T12:30:06.568Z,17.30
2022-11-06T12:32:44.258Z,17.13
2022-11-06T12:35:21.312Z,19.02
2022-11-06T12:37:55.459Z,18.85
2022-11-06T12:40:28.242Z,17.30
2022-11-06T12:43:13.090Z,16.87
2022-11-06T12:45:57.274Z,18.08
2022-11-06T12:48:38.399Z,17.58
2022-11-06T12:51:11.140Z,15.57
2022-11-06T12:53:53.733Z,17.15
2022-11-06T12:56:28.569Z,18.93
2022-11-06T12:59:09.695Z,16.00
2022-11-06T13:01:45.020Z,17.30
2022-11-06T13:04:21.130Z,17.27
2022-11-06T13:07:24.928Z,17.05
2022-11-06T13:10:07.970Z,18.57
2022-11-06T13:12:43.408Z,21.85
2022-11-06T13:15:21.639Z,16.65
2022-11-06T13:17:55.043Z,17.77
2022-11-06T13:20:28.325Z,15.48
2022-11-06T13:23:04.161Z,18.17
2022-11-06T13:25:39.755Z,17.83
2022-11-06T13:28:22.690Z,17.33
2022-11-06T13:30:52.112Z,18.08
2022-11-06T13:33:24.521Z,18.92
2022-11-06T13:35:51.655Z,19.50
2022-11-06T13:38:23.699Z,22.25
2022-11-06T13:40:56.215Z,25.63
2022-11-06T13:43:29.582Z,25.75
2022-11-06T13:46:01.849Z,17.35
2022-11-06T13:48:39.025Z,32.53
2022-11-06T13:51:13.672Z,20.35
2022-11-06T13:53:45.748Z,21.63
2022-11-06T13:56:31.151Z,18.23
2022-11-06T13:59:23.685Z,15.75
2022-11-06T14:02:00.864Z,17.43
2022-11-06T14:04:59.501Z,16.02
2022-11-06T14:07:28.296Z,15.43
2022-11-06T14:09:54.959Z,15.00
2022-11-06T14:12:23.014Z,16.08
2022-11-06T14:14:51.071Z,15.33
2022-11-06T14:17:23.285Z,17.00
2022-11-06T14:20:20.922Z,14.50
2022-11-06T14:22:47.602Z,16.20
2022-11-06T14:25:45.415Z,16.67
2022-11-06T14:28:12.644Z,16.60
2022-11-06T14:31:11.199Z,17.85
2022-11-06T14:33:59.194Z,40.85
2022-11-06T14:36:35.889Z,99.57
2022-11-06T14:39:03.670Z,43.13
2022-11-06T14:41:52.518Z,20.27
2022-11-06T14:44:47.124Z,14.80
2022-11-06T14:47:38.182Z,17.42
2022-11-06T14:50:09.703Z,14.55
2022-11-06T14:52:44.868Z,17.38
2022-11-06T14:55:26.247Z,17.67
2022-11-06T14:57:55.521Z,17.08
2022-11-06T15:00:52.048Z,16.70
2022-11-06T15:03:26.301Z,17.55
2022-11-06T15:05:57.073Z,16.73
2022-11-06T15:08:57.708Z,15.80
2022-11-06T15:11:50.709Z,14.85
2022-11-06T15:14:54.791Z,14.63
2022-11-06T15:17:27.180Z,15.85
2022-11-06T15:20:01.574Z,17.65
2022-11-06T15:22:33.978Z,15.93
2022-11-06T15:25:19.873Z,16.08
2022-11-06T15:28:00.169Z,15.75
2022-11-06T15:30:29.058Z,14.57
2022-11-06T15:32:56.707Z,14.65
2022-11-06T15:35:25.537Z,16.03
2022-11-06T15:37:55.469Z,16.35
2022-11-06T15:40:26.451Z,14.45
2022-11-06T15:42:54.077Z,16.45
2022-11-06T15:45:23.028Z,15.85
2022-11-06T15:47:54.996Z,14.03
2022-11-06T15:50:23.662Z,16.05
2022-11-06T15:52:50.561Z,19.17
2022-11-06T15:55:28.224Z,20.33
2022-11-06T15:58:04.806Z,24.50
2022-11-06T16:00:34.498Z,26.10
2022-11-06T16:03:02.788Z,24.45
2022-11-06T16:05:31.798Z,19.27
2022-11-06T16:08:00.248Z,18.13
2022-11-06T16:10:30.014Z,18.15
2022-11-06T16:12:57.008Z,20.37
2022-11-06T16:15:46.375Z,17.95
2022-11-06T16:18:16.958Z,19.92
2022-11-06T16:20:44.178Z,18.85
2022-11-06T16:23:15.188Z,20.52
2022-11-06T16:25:43.469Z,21.13
2022-11-06T16:28:19.074Z,20.23
2022-11-06T16:30:46.805Z,20.63
2022-11-06T16:33:23.651Z,21.02
2022-11-06T16:35:55.174Z,24.08
2022-11-06T16:38:41.160Z,21.50
2022-11-06T16:41:12.288Z,19.90
2022-11-06T16:43:39.183Z,20.92
2022-11-06T16:46:07.601Z,29.50
2022-11-06T16:48:39.334Z,28.15
2022-11-06T16:51:12.332Z,26.43
2022-11-06T16:53:54.038Z,21.08
2022-11-06T16:56:27.832Z,22.25
2022-11-06T16:58:58.341Z,22.73
2022-11-06T17:01:25.522Z,26.50
2022-11-06T17:03:55.769Z,22.93
2022-11-06T17:06:25.353Z,20.58
2022-11-06T17:09:05.065Z,22.52
2022-11-06T17:11:37.130Z,21.73
2022-11-06T17:14:15.848Z,20.63
2022-11-06T17:16:47.163Z,21.13
2022-11-06T17:19:13.806Z,18.35
2022-11-06T17:21:40.449Z,21.77
2022-11-06T17:24:31.215Z,21.98
2022-11-06T17:26:55.248Z,23.60
2022-11-06T17:29:22.474Z,18.57
2022-11-06T17:31:49.239Z,20.13
2022-11-06T17:34:15.857Z,21.02
2022-11-06T17:36:43.201Z,18.73
2022-11-06T17:39:10.040Z,16.45
2022-11-06T17:41:36.706Z,19.90
2022-11-06T17:44:06.770Z,18.65
2022-11-06T17:46:35.211Z,18.02
2022-11-06T17:49:02.795Z,17.38
2022-11-06T17:51:30.130Z,17.83
2022-11-06T17:53:56.792Z,19.00
2022-11-06T17:56:23.465Z,18.70
2022-11-06T17:58:50.235Z,19.33
2022-11-06T18:01:24.797Z,18.33
2022-11-06T18:03:51.592Z,18.63
2022-11-06T18:06:18.333Z,20.17
2022-11-06T18:08:45.269Z,19.95
2022-11-06T18:11:12.213Z,19.15
2022-11-06T18:13:39.290Z,20.15
2022-11-06T18:16:14.935Z,18.75
2022-11-06T18:18:42.997Z,20.20
2022-11-06T18:21:09.664Z,23.58
2022-11-06T18:23:36.436Z,21.88
2022-11-06T18:26:03.377Z,16.67
2022-11-06T18:28:30.102Z,21.35
2022-11-06T18:30:57.880Z,19.23
2022-11-06T18:33:24.823Z,21.65
2022-11-06T18:35:52.870Z,20.73
2022-11-06T18:38:19.552Z,18.50
2022-11-06T18:40:51.474Z,18.65
2022-11-06T18:43:18.477Z,19.43
2022-11-06T18:45:45.175Z,18.75
2022-11-06T18:48:14.675Z,23.63
2022-11-06T18:50:43.735Z,22.63
2022-11-06T18:53:11.810Z,22.38
2022-11-06T18:55:43.574Z,20.80
2022-11-06T18:58:10.180Z,19.48
2022-11-06T19:00:37.115Z,22.63
2022-11-06T19:03:03.926Z,19.63
2022-11-06T19:05:30.600Z,23.42
2022-11-06T19:08:00.372Z,22.53
2022-11-06T19:10:28.739Z,24.48
2022-11-06T19:12:59.111Z,23.73
2022-11-06T19:15:26.235Z,23.85
2022-11-06T19:17:53.842Z,23.75
2022-11-06T19:20:20.589Z,20.50
2022-11-06T19:22:49.963Z,24.33
2022-11-06T19:25:16.892Z,22.05
2022-11-06T19:27:44.969Z,24.42
2022-11-06T19:30:12.106Z,22.77
2022-11-06T19:32:38.744Z,28.07
2022-11-06T19:35:06.133Z,24.40
2022-11-06T19:37:32.826Z,22.90
2022-11-06T19:40:05.424Z,24.92
2022-11-06T19:42:32.842Z,26.50
2022-11-06T19:45:07.783Z,25.10
2022-11-06T19:47:34.543Z,26.40
2022-11-06T19:50:01.367Z,25.90
2022-11-06T19:52:44.136Z,24.48
2022-11-06T19:55:26.371Z,24.95
2022-11-06T19:57:54.402Z,21.07
2022-11-06T20:00:22.460Z,24.80
2022-11-06T20:02:49.320Z,24.55
2022-11-06T20:05:16.223Z,24.95
2022-11-06T20:07:42.938Z,25.42
2022-11-06T20:10:09.909Z,27.17
2022-11-06T20:12:36.539Z,30.55
2022-11-06T20:15:03.545Z,24.35
2022-11-06T20:17:31.625Z,26.02
2022-11-06T20:19:58.311Z,28.65
2022-11-06T20:22:25.016Z,27.93
2022-11-06T20:24:51.784Z,28.38
2022-11-06T20:27:18.529Z,27.35
2022-11-06T20:29:45.366Z,27.42
2022-11-06T20:32:17.658Z,29.27
2022-11-06T20:34:47.172Z,27.07
2022-11-06T20:37:13.865Z,31.90
2022-11-06T20:39:40.565Z,28.85
2022-11-06T20:42:07.203Z,40.35
2022-11-06T20:44:34.121Z,38.72
2022-11-06T20:47:00.778Z,57.07
2022-11-06T20:49:27.521Z,34.55
2022-11-06T20:52:13.309Z,27.50
2022-11-06T20:54:46.461Z,23.42
2022-11-06T20:57:13.901Z,26.83
2022-11-06T20:59:40.534Z,29.50
2022-11-06T21:02:07.294Z,26.77
2022-11-06T21:04:34.116Z,28.42
2022-11-06T21:07:02.138Z,28.38
2022-11-06T21:09:28.789Z,28.92
2022-11-06T21:11:55.465Z,28.40
2022-11-06T21:14:22.308Z,26.00
2022-11-06T21:16:48.912Z,30.52
2022-11-06T21:19:15.590Z,28.17
2022-11-06T21:21:42.264Z,27.67
2022-11-06T21:24:10.304Z,25.93
2022-11-06T21:26:38.190Z,23.58
2022-11-06T21:29:07.181Z,26.20
2022-11-06T21:31:34.128Z,24.75
2022-11-06T21:34:02.512Z,24.55
2022-11-06T21:36:31.057Z,25.13
2022-11-06T21:38:59.766Z,24.20
2022-11-06T21:41:30.347Z,23.02
2022-11-06T21:43:57.518Z,26.70
2022-11-06T21:46:24.602Z,27.77
2022-11-06T21:48:52.119Z,28.90
2022-11-06T21:51:21.869Z,27.75
2022-11-06T21:53:49.321Z,25.77
2022-11-06T21:56:16.394Z,28.27
2022-11-06T21:58:50.767Z,24.17
2022-11-06T22:01:18.248Z,24.80
2022-11-06T22:03:45.344Z,25.95
2022-11-06T22:06:14.818Z,26.13
2022-11-06T22:08:43.477Z,29.38
2022-11-06T22:11:12.377Z,26.65
2022-11-06T22:13:39.081Z,32.07
2022-11-06T22:16:08.000Z,31.17
2022-11-06T22:18:37.957Z,29.02
2022-11-06T22:21:08.782Z,28.13
2022-11-06T22:23:36.881Z,25.27
2022-11-06T22:26:04.274Z,26.07
2022-11-06T22:28:31.117Z,27.30
2022-11-06T22:30:57.812Z,26.02
2022-11-06T22:33:26.192Z,25.52
2022-11-06T22:35:52.897Z,24.17
2022-11-06T22:38:19.526Z,22.67
2022-11-06T22:40:52.726Z,24.50
2022-11-06T22:43:19.361Z,24.40
2022-11-06T22:45:46.209Z,24.63
2022-11-06T22:48:12.876Z,21.73
2022-11-06T22:50:41.369Z,25.27
2022-11-06T22:53:13.663Z,24.33
2022-11-06T22:55:41.661Z,23.95
2022-11-06T22:58:08.361Z,24.95
2022-11-06T23:00:41.774Z,25.55
2022-11-06T23:03:08.450Z,24.87
2022-11-06T23:05:40.182Z,28.75
2022-11-06T23:08:13.735Z,26.25
2022-11-06T23:10:41.195Z,24.48
2022-11-06T23:13:08.601Z,25.55
2022-11-06T23:15:35.821Z,26.10
2022-11-06T23:18:02.704Z,26.55
2022-11-06T23:20:30.780Z,25.52
2022-11-06T23:22:59.251Z,28.45
2022-11-06T23:25:26.371Z,25.13
2022-11-06T23:27:53.513Z,24.67
2022-11-06T23:30:20.413Z,23.38
2022-11-06T23:32:47.265Z,23.67
2022-11-06T23:35:17.017Z,24.92
2022-11-06T23:37:44.289Z,23.50
2022-11-06T23:40:12.790Z,23.77
2022-11-06T23:42:39.681Z,22.65
2022-11-06T23:45:07.456Z,22.98
2022-11-06T23:47:35.151Z,21.95
2022-11-06T23:50:02.526Z,21.70
2022-11-06T23:52:29.243Z,20.27
2022-11-06T23:54:56.256Z,19.40
2022-11-06T23:57:24.274Z,19.33
2022-11-06T23:59:50.881Z,21.58
